Csk Radiance — VRXB4 — position and weather

sailwx.info

Track history (hours):
 
Tides and Currents Weather Stations Pressure Air Temp Water Temp Dewpoint Dewpoint Depression Visibility Wind Speed Wind Dir Waves Ship Positions

Csk Radiance

Last reported at 2015-Jan-03 20:08 UTC. Time now 2015-Jan-26 02:23 UTC.
Position N 02°02' E 102°10'.
Warning: this ship's position is 22 days out of date.

Length 289 m; draft 10.7 m.

Type: Cargo ship. MMSI: 477918000.

Date/timePositionNaut miles runAvg speedWind from/ knotsBaromVisibWave heightAir tempDewpointWater temp
2015-Jan-03 20:08N 02°02' E 102°10'913.2
2015-Jan-03 19:25N 01°56' E 102°18'1213.8
2015-Jan-03 18:33N 01°51' E 102°29'1513.9
2015-Jan-03 17:29N 01°45' E 102°42'7011.9
2015-Jan-03 11:34N 01°09' E 103°43'8 8.0
2015-Jan-03 10:34N 01°12' E 103°50'9 8.5
2015-Jan-03 09:32N 01°15' E 103°58'6 6.1
2015-Jan-03 08:30N 01°18' E 104°04'0 0.0
2015-Jan-03 07:24N 01°18' E 104°04'0 0.0
2015-Jan-03 05:30N 01°18' E 104°04'0 0.1
2015-Jan-03 04:30N 01°18' E 104°04'0 0.0
2015-Jan-03 03:30N 01°18' E 104°04'0 0.2
2015-Jan-03 02:06N 01°17' E 104°04'0 0.1
2015-Jan-03 01:18N 01°17' E 104°04'0 0.1
2015-Jan-02 23:18N 01°18' E 104°04'0 0.0
2015-Jan-02 22:06N 01°18' E 104°04'0 0.0
2015-Jan-02 21:24N 01°18' E 104°04'0 0.0
2015-Jan-02 20:18N 01°18' E 104°04'0 0.0
2015-Jan-02 19:18N 01°18' E 104°04'0 0.0
2015-Jan-02 16:06N 01°17' E 104°04'0 0.0
2015-Jan-02 14:06N 01°18' E 104°04'0 0.0
2015-Jan-02 11:12N 01°17' E 104°04'0 0.3
2015-Jan-02 10:11N 01°18' E 104°04'2 3.4
2015-Jan-02 09:32N 01°17' E 104°06'8 7.4
2015-Jan-02 08:31N 01°18' E 104°14'  
Track history (hours):
 
Tides and Currents Weather Stations Pressure Air Temp Water Temp Dewpoint Dewpoint Depression Visibility Wind Speed Wind Dir Waves Ship Positions

Csk Radiance

Last reported at 2015-Jan-03 20:08 UTC. Time now 2015-Jan-26 02:23 UTC.
Position N 02°02' E 102°10'.
Warning: this ship's position is 22 days out of date.

Length 289 m; draft 10.7 m.

Type: Cargo ship. MMSI: 477918000.

Date/timePositionNaut miles runAvg speedWind from/ knotsBaromVisibWave heightAir tempDewpointWater temp
2015-Jan-03 20:08N 02°02' E 102°10'913.2
2015-Jan-03 19:25N 01°56' E 102°18'1213.8
2015-Jan-03 18:33N 01°51' E 102°29'1513.9
2015-Jan-03 17:29N 01°45' E 102°42'7011.9
2015-Jan-03 11:34N 01°09' E 103°43'8 8.0
2015-Jan-03 10:34N 01°12' E 103°50'9 8.5
2015-Jan-03 09:32N 01°15' E 103°58'6 6.1
2015-Jan-03 08:30N 01°18' E 104°04'0 0.0
2015-Jan-03 07:24N 01°18' E 104°04'0 0.0
2015-Jan-03 05:30N 01°18' E 104°04'0 0.1
2015-Jan-03 04:30N 01°18' E 104°04'0 0.0
2015-Jan-03 03:30N 01°18' E 104°04'0 0.2
2015-Jan-03 02:06N 01°17' E 104°04'0 0.1
2015-Jan-03 01:18N 01°17' E 104°04'0 0.1
2015-Jan-02 23:18N 01°18' E 104°04'0 0.0
2015-Jan-02 22:06N 01°18' E 104°04'0 0.0
2015-Jan-02 21:24N 01°18' E 104°04'0 0.0
2015-Jan-02 20:18N 01°18' E 104°04'0 0.0
2015-Jan-02 19:18N 01°18' E 104°04'0 0.0
2015-Jan-02 16:06N 01°17' E 104°04'0 0.0
2015-Jan-02 14:06N 01°18' E 104°04'0 0.0
2015-Jan-02 11:12N 01°17' E 104°04'0 0.3
2015-Jan-02 10:11N 01°18' E 104°04'2 3.4
2015-Jan-02 09:32N 01°17' E 104°06'8 7.4
2015-Jan-02 08:31N 01°18' E 104°14'  

Dump ship's entire track history